createdAt,value
2019-04-11T00:00:25.623Z,1.83
2019-04-11T00:01:35.874Z,1.70
2019-04-11T00:02:25.195Z,1.65
2019-04-11T00:03:25.206Z,1.68
2019-04-11T00:04:25.960Z,1.64
2019-04-11T00:05:24.889Z,1.71
2019-04-11T00:06:25.633Z,1.64
2019-04-11T00:07:24.683Z,1.65
2019-04-11T00:08:24.580Z,1.64
2019-04-11T00:09:24.895Z,1.74
2019-04-11T00:10:24.992Z,1.68
2019-04-11T00:11:24.289Z,1.67
2019-04-11T00:12:24.361Z,1.64
2019-04-11T00:13:26.995Z,1.50
2019-04-11T00:14:24.215Z,1.61
2019-04-11T00:15:24.494Z,1.63
2019-04-11T00:16:23.872Z,1.50
2019-04-11T00:17:23.784Z,1.50
2019-04-11T00:18:23.559Z,1.53
2019-04-11T00:19:23.456Z,1.50
2019-04-11T00:20:24.254Z,1.54
2019-04-11T00:21:24.502Z,1.49
2019-04-11T00:22:23.627Z,1.49
2019-04-11T00:23:23.891Z,1.49
2019-04-11T00:24:23.210Z,1.49
2019-04-11T00:25:23.195Z,1.54
2019-04-11T00:26:22.753Z,1.47
2019-04-11T00:27:22.636Z,1.47
2019-04-11T00:28:23.637Z,1.52
2019-04-11T00:29:22.675Z,1.44
2019-04-11T00:30:22.334Z,1.44
2019-04-11T00:31:23.042Z,1.42
2019-04-11T00:32:22.332Z,1.38
2019-04-11T00:33:23.114Z,1.34
2019-04-11T00:34:22.663Z,1.26
2019-04-11T00:35:21.818Z,1.13
2019-04-11T00:36:22.210Z,1.11
2019-04-11T00:37:21.616Z,0.99
2019-04-11T00:38:21.530Z,0.93
2019-04-11T00:39:21.583Z,0.84
2019-04-11T00:40:21.558Z,0.75
2019-04-11T00:41:21.773Z,0.78
2019-04-11T00:42:21.102Z,0.77
2019-04-11T00:43:30.609Z,0.68
2019-04-11T00:44:20.987Z,0.77
2019-04-11T00:45:21.289Z,0.78
2019-04-11T00:46:20.708Z,0.71
2019-04-11T00:47:20.778Z,0.72
2019-04-11T00:48:21.694Z,0.62
2019-04-11T00:49:20.384Z,0.62
2019-04-11T00:50:21.167Z,0.60
2019-04-11T00:51:20.193Z,0.62
2019-04-11T00:52:20.576Z,0.64
2019-04-11T00:53:20.468Z,0.51
2019-04-11T00:54:19.870Z,0.57
2019-04-11T00:55:19.771Z,0.40
2019-04-11T00:56:19.947Z,0.41
2019-04-11T00:57:19.561Z,0.45
2019-04-11T00:58:19.458Z,0.43
2019-04-11T00:59:20.376Z,0.59
2019-04-11T01:00:19.273Z,0.56
2019-04-11T01:01:19.805Z,0.52
2019-04-11T01:02:19.049Z,0.60
2019-04-11T01:03:20.060Z,0.64
2019-04-11T01:04:19.935Z,0.60
2019-04-11T01:05:18.747Z,0.77
2019-04-11T01:06:18.655Z,0.71
2019-04-11T01:07:18.580Z,0.67
2019-04-11T01:08:18.437Z,0.75
2019-04-11T01:09:18.331Z,0.68
2019-04-11T01:10:18.228Z,0.67
2019-04-11T01:11:18.147Z,0.81
2019-04-11T01:12:18.607Z,0.77
2019-04-11T01:13:17.924Z,0.77
2019-04-11T01:14:17.821Z,0.78
2019-04-11T01:15:17.717Z,0.77
2019-04-11T01:16:17.627Z,0.74
2019-04-11T01:17:17.510Z,0.67
2019-04-11T01:18:18.050Z,0.70
2019-04-11T01:19:18.402Z,0.67
2019-04-11T01:20:17.465Z,0.64
2019-04-11T01:21:17.896Z,0.74
2019-04-11T01:22:18.108Z,0.68
2019-04-11T01:23:16.895Z,0.68
2019-04-11T01:24:17.742Z,0.71
2019-04-11T01:25:16.752Z,0.75
2019-04-11T01:26:17.017Z,0.75
2019-04-11T01:27:16.482Z,0.72
2019-04-11T01:28:16.493Z,0.71
2019-04-11T01:29:17.484Z,0.60
2019-04-11T01:30:16.175Z,0.56
2019-04-11T01:31:16.094Z,0.56
2019-04-11T01:32:16.062Z,0.60
2019-04-11T01:33:15.970Z,0.53
2019-04-11T01:34:16.207Z,0.52
2019-04-11T01:35:15.661Z,0.52
2019-04-11T01:36:15.574Z,0.52
2019-04-11T01:37:15.571Z,0.56
2019-04-11T01:38:16.481Z,0.48
2019-04-11T01:39:15.250Z,0.51
2019-04-11T01:40:15.791Z,0.59
2019-04-11T01:41:15.141Z,0.52
2019-04-11T01:42:16.141Z,0.63
2019-04-11T01:43:15.651Z,0.63
2019-04-11T01:44:14.737Z,0.71
2019-04-11T01:45:14.632Z,0.74
2019-04-11T01:46:14.549Z,0.62
2019-04-11T01:47:15.010Z,0.62
2019-04-11T01:48:15.285Z,0.75
2019-04-11T01:49:14.340Z,0.78
2019-04-11T01:50:14.120Z,0.72
2019-04-11T01:51:14.030Z,0.67
2019-04-11T01:52:14.017Z,0.53
2019-04-11T01:53:15.047Z,0.57
2019-04-11T01:54:13.816Z,0.59
2019-04-11T01:55:14.399Z,0.53
2019-04-11T01:56:14.784Z,0.59
2019-04-11T01:57:13.841Z,0.56
2019-04-11T01:58:14.231Z,0.72
2019-04-11T01:59:13.251Z,0.89
2019-04-11T02:00:13.092Z,0.99
2019-04-11T02:01:13.100Z,0.99
2019-04-11T02:02:13.585Z,1.07
2019-04-11T02:03:12.948Z,0.90
2019-04-11T02:04:12.680Z,0.93
2019-04-11T02:05:12.579Z,0.98
2019-04-11T02:06:12.474Z,0.90
2019-04-11T02:07:12.410Z,0.93
2019-04-11T02:08:13.262Z,0.90
2019-04-11T02:09:12.166Z,0.96
2019-04-11T02:10:12.733Z,0.92
2019-04-11T02:11:12.941Z,0.86
2019-04-11T02:12:12.084Z,0.84
2019-04-11T02:13:11.961Z,0.88
2019-04-11T02:14:16.263Z,0.89
2019-04-11T02:15:12.312Z,0.77
2019-04-11T02:16:12.551Z,0.75
2019-04-11T02:17:12.523Z,0.75
2019-04-11T02:18:11.242Z,0.80
2019-04-11T02:19:12.118Z,0.80
2019-04-11T02:20:11.035Z,0.75
2019-04-11T02:21:11.555Z,0.82
2019-04-11T02:22:10.948Z,0.77
2019-04-11T02:23:10.923Z,0.77
2019-04-11T02:24:11.851Z,0.70
2019-04-11T02:25:10.523Z,0.75
2019-04-11T02:26:11.437Z,0.62
2019-04-11T02:27:10.613Z,0.72
2019-04-11T02:28:10.644Z,0.77
2019-04-11T02:29:11.132Z,0.80
2019-04-11T02:30:11.220Z,0.77
2019-04-11T02:31:11.577Z,0.74
2019-04-11T02:32:11.750Z,0.74
2019-04-11T02:33:11.687Z,0.72
2019-04-11T02:34:11.464Z,0.80
2019-04-11T02:35:11.148Z,0.74
2019-04-11T02:36:11.254Z,0.63
2019-04-11T02:37:09.679Z,0.75
2019-04-11T02:38:09.700Z,0.71
2019-04-11T02:39:14.223Z,0.75
2019-04-11T02:40:09.032Z,0.72
2019-04-11T02:41:10.584Z,0.78
2019-04-11T02:42:09.463Z,0.80
2019-04-11T02:43:09.836Z,0.84
2019-04-11T02:44:27.213Z,0.95
2019-04-11T02:45:23.090Z,0.98
2019-04-11T02:46:17.642Z,0.93
2019-04-11T02:47:13.620Z,0.96
2019-04-11T02:48:10.089Z,0.93
2019-04-11T02:49:08.218Z,0.90
2019-04-11T02:50:08.799Z,0.84
2019-04-11T02:51:07.878Z,0.75
2019-04-11T02:52:09.329Z,0.64
2019-04-11T02:53:09.263Z,0.75
2019-04-11T02:54:07.813Z,0.74
2019-04-11T02:55:08.530Z,0.68
2019-04-11T02:56:09.274Z,0.56
2019-04-11T02:57:07.943Z,0.60
2019-04-11T02:58:07.847Z,0.57
2019-04-11T02:59:07.035Z,0.56
2019-04-11T03:00:08.565Z,0.51
2019-04-11T03:01:07.949Z,0.51
2019-04-11T03:02:07.468Z,0.53
2019-04-11T03:03:08.463Z,0.57
2019-04-11T03:04:07.418Z,0.37
2019-04-11T03:05:07.126Z,0.38
2019-04-11T03:06:07.085Z,0.34
2019-04-11T03:07:07.949Z,0.33
2019-04-11T03:08:10.551Z,0.40
2019-04-11T03:09:07.042Z,0.52
2019-04-11T03:10:07.341Z,0.52
2019-04-11T03:11:07.572Z,0.63
2019-04-11T03:12:07.247Z,0.52
2019-04-11T03:13:05.760Z,0.67
2019-04-11T03:14:05.489Z,0.72
2019-04-11T03:15:24.133Z,0.68
2019-04-11T03:16:23.720Z,0.71
2019-04-11T03:17:12.917Z,0.63
2019-04-11T03:18:09.190Z,0.57
2019-04-11T03:19:22.700Z,0.64
2019-04-11T03:20:18.387Z,0.59
2019-04-11T03:21:11.312Z,0.75
2019-04-11T03:22:05.636Z,0.60
2019-04-11T03:23:07.650Z,0.67
2019-04-11T03:24:06.255Z,0.64
2019-04-11T03:25:06.014Z,0.78
2019-04-11T03:26:05.443Z,0.78
2019-04-11T03:27:04.937Z,0.72
2019-04-11T03:28:05.118Z,0.78
2019-04-11T03:29:04.187Z,0.74
2019-04-11T03:30:07.052Z,0.57
2019-04-11T03:31:37.383Z,0.78
2019-04-11T03:32:40.122Z,0.71
2019-04-11T03:37:50.012Z,0.57
2019-04-11T03:38:23.123Z,0.59
2019-04-11T03:39:21.666Z,0.40
2019-04-11T03:40:22.463Z,0.51
2019-04-11T03:41:20.428Z,0.45
2019-04-11T03:42:16.889Z,0.56
2019-04-11T03:43:16.789Z,0.81
2019-04-11T03:44:11.964Z,0.77
2019-04-11T03:45:29.021Z,0.74
2019-04-11T03:46:19.893Z,0.72
2019-04-11T03:47:18.174Z,0.75
2019-04-11T03:48:19.695Z,0.74
2019-04-11T03:49:14.784Z,0.86
2019-04-11T03:50:08.164Z,0.74
2019-04-11T03:51:02.475Z,0.60
2019-04-11T03:52:03.420Z,0.80
2019-04-11T03:53:03.497Z,0.72
2019-04-11T03:54:01.531Z,0.78
2019-04-11T03:55:03.941Z,0.77
2019-04-11T03:56:01.596Z,0.71
2019-04-11T03:57:01.291Z,0.68
2019-04-11T03:58:01.218Z,0.64
2019-04-11T03:59:01.456Z,0.63
2019-04-11T04:00:01.706Z,0.74
2019-04-11T04:01:03.389Z,0.70
2019-04-11T04:02:00.790Z,0.77
2019-04-11T04:03:01.556Z,0.67
2019-04-11T04:04:00.653Z,0.60
2019-04-11T04:05:01.346Z,0.59
2019-04-11T04:06:01.879Z,0.57
2019-04-11T04:07:00.036Z,0.71
2019-04-11T04:08:01.736Z,0.72
2019-04-11T04:09:00.681Z,0.62
2019-04-11T04:10:00.449Z,0.62
2019-04-11T04:11:00.622Z,0.59
2019-04-11T04:11:59.694Z,0.62
2019-04-11T04:13:00.799Z,0.56
2019-04-11T04:13:59.978Z,0.57
2019-04-11T04:15:01.231Z,0.52
2019-04-11T04:16:08.158Z,0.49
2019-04-11T04:17:01.651Z,0.52
2019-04-11T04:17:59.675Z,0.51
2019-04-11T04:19:01.042Z,0.63
2019-04-11T04:19:59.584Z,0.60
2019-04-11T04:20:59.714Z,0.62
2019-04-11T04:21:59.604Z,0.63
2019-04-11T04:22:58.467Z,0.59
2019-04-11T04:24:01.366Z,0.52
2019-04-11T04:24:58.939Z,0.74
2019-04-11T04:25:58.476Z,0.74
2019-04-11T04:27:00.948Z,0.77
2019-04-11T04:27:58.868Z,0.70
2019-04-11T04:28:57.896Z,0.72
2019-04-11T04:30:01.506Z,0.74
2019-04-11T04:30:57.873Z,0.74
2019-04-11T04:31:59.293Z,0.57
2019-04-11T04:32:57.408Z,0.59
2019-04-11T04:33:57.748Z,0.56
2019-04-11T04:34:58.513Z,0.48
2019-04-11T04:35:58.094Z,0.45
2019-04-11T04:36:57.872Z,0.51
2019-04-11T04:37:57.142Z,0.43
2019-04-11T04:38:57.324Z,0.38
2019-04-11T04:40:16.295Z,0.48
2019-04-11T04:41:13.477Z,0.41
2019-04-11T04:42:03.762Z,0.40
2019-04-11T04:42:58.494Z,0.41
2019-04-11T04:43:57.595Z,0.37
2019-04-11T04:44:56.141Z,0.34
2019-04-11T04:46:11.563Z,0.37
2019-04-11T04:47:10.192Z,0.34
2019-04-11T04:48:02.942Z,0.34
2019-04-11T04:48:56.147Z,0.37
2019-04-11T04:49:57.078Z,0.35
2019-04-11T04:50:57.618Z,0.38
2019-04-11T04:51:56.057Z,0.35
2019-04-11T04:52:56.052Z,0.31
2019-04-11T04:53:55.631Z,0.33
2019-04-11T04:54:57.349Z,0.33
2019-04-11T04:55:55.097Z,0.30
2019-04-11T04:56:55.198Z,0.33
2019-04-11T04:57:55.453Z,0.31
2019-04-11T04:58:56.003Z,0.31
2019-04-11T04:59:55.539Z,0.33
2019-04-11T05:00:56.769Z,0.35
2019-04-11T05:01:55.444Z,0.37
2019-04-11T05:02:55.433Z,0.34
2019-04-11T05:03:54.232Z,0.35
2019-04-11T05:04:54.325Z,0.33
2019-04-11T05:05:55.293Z,0.35
2019-04-11T05:06:54.903Z,0.31
2019-04-11T05:07:54.078Z,0.25
2019-04-11T05:08:53.662Z,0.20
2019-04-11T05:09:54.500Z,0.28
2019-04-11T05:10:53.609Z,0.15
2019-04-11T05:11:55.015Z,0.16
2019-04-11T05:12:54.787Z,0.16
2019-04-11T05:13:54.488Z,0.02
2019-04-11T05:14:54.151Z,0.12
2019-04-11T05:16:05.768Z,0.12
2019-04-11T05:16:54.487Z,-0.09
2019-04-11T05:17:53.325Z,-0.17
2019-04-11T05:18:52.644Z,-0.21
2019-04-11T05:19:52.525Z,-0.12
2019-04-11T05:20:52.769Z,-0.01
2019-04-11T05:21:52.317Z,0.05
2019-04-11T05:22:52.428Z,0.07
2019-04-11T05:23:52.240Z,0.25
2019-04-11T05:24:52.012Z,0.35
2019-04-11T05:25:53.005Z,0.35
2019-04-11T05:26:52.325Z,0.57
2019-04-11T05:27:51.737Z,0.68
2019-04-11T05:28:51.618Z,0.74
2019-04-11T05:29:51.616Z,0.74
2019-04-11T05:30:51.514Z,0.89
2019-04-11T05:31:51.294Z,0.99
2019-04-11T05:32:51.394Z,1.20
2019-04-11T05:33:51.815Z,1.34
2019-04-11T05:34:51.162Z,1.38
2019-04-11T05:35:52.068Z,1.49
2019-04-11T05:36:50.783Z,1.71
2019-04-11T05:37:51.465Z,1.82
2019-04-11T05:38:50.640Z,1.83
2019-04-11T05:39:50.535Z,1.95
2019-04-11T05:40:50.402Z,1.98
2019-04-11T05:41:51.400Z,2.00
2019-04-11T05:42:53.442Z,2.04
2019-04-11T05:43:51.450Z,2.27
2019-04-11T05:44:50.042Z,2.36
2019-04-11T05:45:53.590Z,2.44
2019-04-11T05:46:56.246Z,2.37
2019-04-11T05:47:53.420Z,2.53
2019-04-11T05:48:50.577Z,2.61
2019-04-11T05:49:50.520Z,2.79
2019-04-11T05:50:51.641Z,2.87
2019-04-11T05:51:49.429Z,3.07
2019-04-11T05:52:50.325Z,3.16
2019-04-11T05:53:51.368Z,3.08
2019-04-11T05:54:49.793Z,3.34
2019-04-11T05:55:48.863Z,3.37
2019-04-11T05:56:53.703Z,3.57
2019-04-11T05:57:48.664Z,3.74
2019-04-11T05:58:49.399Z,3.81
2019-04-11T05:59:51.157Z,3.90
2019-04-11T06:00:48.942Z,3.90
2019-04-11T06:01:48.792Z,3.98
2019-04-11T06:02:49.218Z,4.02
2019-04-11T06:03:49.262Z,4.04
2019-04-11T06:04:51.748Z,4.00
2019-04-11T06:05:47.874Z,4.16
2019-04-11T06:06:47.768Z,3.99
2019-04-11T06:07:50.180Z,4.02
2019-04-11T06:08:48.259Z,4.02
2019-04-11T06:09:48.200Z,3.92
2019-04-11T06:10:48.389Z,3.92
2019-04-11T06:11:48.204Z,3.93
2019-04-11T06:12:47.318Z,3.96
2019-04-11T06:13:47.094Z,3.89
2019-04-11T06:14:47.174Z,3.81
2019-04-11T06:15:47.215Z,3.88
2019-04-11T06:16:51.907Z,4.00
2019-04-11T06:17:46.688Z,3.95
2019-04-11T06:18:46.613Z,3.88
2019-04-11T06:19:46.485Z,3.93
2019-04-11T06:20:47.235Z,3.96
2019-04-11T06:21:46.459Z,4.07
2019-04-11T06:22:46.191Z,4.11
2019-04-11T06:23:46.109Z,4.17
2019-04-11T06:24:45.996Z,4.31
2019-04-11T06:25:46.852Z,4.54
2019-04-11T06:26:46.949Z,4.57
2019-04-11T06:27:45.699Z,4.80
2019-04-11T06:28:45.620Z,5.08
2019-04-11T06:29:45.503Z,5.06
2019-04-11T06:30:45.406Z,5.26
2019-04-11T06:31:45.450Z,5.14
2019-04-11T06:32:45.859Z,5.22
2019-04-11T06:33:45.131Z,5.37
2019-04-11T06:34:45.015Z,5.27
2019-04-11T06:35:44.926Z,5.51
2019-04-11T06:36:45.452Z,5.70
2019-04-11T06:37:45.702Z,5.84
2019-04-11T06:38:44.940Z,5.87
2019-04-11T06:39:45.338Z,6.14
2019-04-11T06:40:44.432Z,6.40
2019-04-11T06:41:44.338Z,6.64
2019-04-11T06:42:44.239Z,6.79
2019-04-11T06:43:44.565Z,6.86
2019-04-11T06:44:44.049Z,6.89
2019-04-11T06:45:44.005Z,6.61
2019-04-11T06:46:52.357Z,6.83
2019-04-11T06:47:43.758Z,6.94
2019-04-11T06:48:43.678Z,6.89
2019-04-11T06:49:44.627Z,7.14
2019-04-11T06:50:43.868Z,6.91
2019-04-11T06:51:44.157Z,6.99
2019-04-11T06:52:43.379Z,7.12
2019-04-11T06:53:44.121Z,7.09
2019-04-11T06:54:43.404Z,6.75
2019-04-11T06:55:42.994Z,7.07
2019-04-11T06:56:43.401Z,7.11
2019-04-11T06:57:42.804Z,6.90
2019-04-11T06:58:43.709Z,6.93
2019-04-11T06:59:42.934Z,6.64
2019-04-11T07:00:42.620Z,6.89
2019-04-11T07:01:42.662Z,6.78
2019-04-11T07:02:42.326Z,6.57
2019-04-11T07:03:42.233Z,6.81
2019-04-11T07:04:42.151Z,6.72
2019-04-11T07:05:42.695Z,7.14
2019-04-11T07:06:41.957Z,7.30
2019-04-11T07:07:42.929Z,7.30
2019-04-11T07:08:42.656Z,7.23
2019-04-11T07:09:41.681Z,7.36
2019-04-11T07:10:42.529Z,7.54
2019-04-11T07:11:42.599Z,7.21
2019-04-11T07:12:41.371Z,6.71
2019-04-11T07:13:41.307Z,6.30
2019-04-11T07:14:41.201Z,6.30
2019-04-11T07:15:41.085Z,6.53
2019-04-11T07:16:40.993Z,6.73
2019-04-11T07:17:40.909Z,6.97
2019-04-11T07:18:40.883Z,6.68
2019-04-11T07:19:41.534Z,6.61
2019-04-11T07:20:41.415Z,7.12
2019-04-11T07:21:41.867Z,7.44
2019-04-11T07:22:41.051Z,7.37
2019-04-11T07:23:40.580Z,7.70
2019-04-11T07:24:41.047Z,7.14
2019-04-11T07:25:40.133Z,7.18
2019-04-11T07:26:40.038Z,7.11
2019-04-11T07:27:40.887Z,6.58
2019-04-11T07:28:39.956Z,6.79
2019-04-11T07:29:40.108Z,7.14
2019-04-11T07:30:39.714Z,7.41
2019-04-11T07:31:39.818Z,7.79
2019-04-11T07:32:40.570Z,7.96
2019-04-11T07:33:39.367Z,8.40
2019-04-11T07:34:40.060Z,8.10
2019-04-11T07:35:39.873Z,8.28
2019-04-11T07:36:40.435Z,8.46
2019-04-11T07:37:40.511Z,7.94
2019-04-11T07:38:38.898Z,8.03
2019-04-11T07:39:42.338Z,8.03
2019-04-11T07:40:39.463Z,7.81
2019-04-11T07:41:39.436Z,7.52
2019-04-11T07:42:39.055Z,7.41
2019-04-11T07:43:39.090Z,7.21
2019-04-11T07:44:38.611Z,7.32
2019-04-11T07:45:40.227Z,7.34
2019-04-11T07:46:38.659Z,7.47
2019-04-11T07:47:38.241Z,7.62
2019-04-11T07:48:38.148Z,8.02
2019-04-11T07:49:37.967Z,8.20
2019-04-11T07:50:37.754Z,8.27
2019-04-11T07:51:38.622Z,8.52
2019-04-11T07:52:38.016Z,8.02
2019-04-11T07:53:37.473Z,8.10
2019-04-11T07:54:37.389Z,7.99
2019-04-11T07:55:37.280Z,7.95
2019-04-11T07:56:37.545Z,7.96
2019-04-11T07:57:38.303Z,8.06
2019-04-11T07:58:37.507Z,8.52
2019-04-11T07:59:37.648Z,8.71
2019-04-11T08:00:44.213Z,8.54
2019-04-11T08:01:36.709Z,8.65
2019-04-11T08:02:37.649Z,9.12
2019-04-11T08:03:37.932Z,9.23
2019-04-11T08:04:36.514Z,9.22
2019-04-11T08:05:36.659Z,8.86
2019-04-11T08:06:37.057Z,8.25
2019-04-11T08:07:36.145Z,8.04
2019-04-11T08:08:36.810Z,8.10
2019-04-11T08:09:35.970Z,8.14
2019-04-11T08:10:37.040Z,8.14
2019-04-11T08:11:35.919Z,8.24
2019-04-11T08:12:35.680Z,7.91
2019-04-11T08:13:36.722Z,7.99
2019-04-11T08:14:35.505Z,8.28
2019-04-11T08:15:35.611Z,8.17
2019-04-11T08:16:35.296Z,8.21
2019-04-11T08:17:39.039Z,8.18
2019-04-11T08:18:35.109Z,8.36
2019-04-11T08:19:35.271Z,8.10
2019-04-11T08:20:34.923Z,8.04
2019-04-11T08:21:36.090Z,8.60
2019-04-11T08:22:35.109Z,7.92
2019-04-11T08:23:34.656Z,8.29
2019-04-11T08:24:34.663Z,8.00
2019-04-11T08:25:35.432Z,8.21
2019-04-11T08:26:34.362Z,8.43
2019-04-11T08:27:34.265Z,8.93
2019-04-11T08:28:35.484Z,9.35
2019-04-11T08:29:34.124Z,9.20
2019-04-11T08:30:35.000Z,8.96
2019-04-11T08:31:33.886Z,9.26
2019-04-11T08:32:33.823Z,8.97
2019-04-11T08:33:35.000Z,9.59
2019-04-11T08:34:33.624Z,9.58
2019-04-11T08:35:34.847Z,9.81
2019-04-11T08:36:33.785Z,9.89
2019-04-11T08:37:33.794Z,9.95
2019-04-11T08:38:34.278Z,10.17
2019-04-11T08:39:33.324Z,9.95
2019-04-11T08:40:33.613Z,9.95
2019-04-11T08:41:33.901Z,9.81
2019-04-11T08:42:33.743Z,9.65
2019-04-11T08:43:32.766Z,9.01
2019-04-11T08:44:32.697Z,8.64
2019-04-11T08:45:32.581Z,8.93
2019-04-11T08:46:33.065Z,9.26
2019-04-11T08:47:42.877Z,9.81
2019-04-11T08:48:33.041Z,9.98
2019-04-11T08:49:33.340Z,10.16
2019-04-11T08:50:32.390Z,9.49
2019-04-11T08:51:32.025Z,9.41
2019-04-11T08:52:32.070Z,9.48
2019-04-11T08:53:32.801Z,9.04
2019-04-11T08:54:31.747Z,8.57
2019-04-11T08:55:43.756Z,8.80
2019-04-11T08:56:31.559Z,9.34
2019-04-11T08:57:31.844Z,9.89
2019-04-11T08:58:31.389Z,9.50
2019-04-11T08:59:31.357Z,8.79
2019-04-11T09:00:31.843Z,8.80
2019-04-11T09:01:31.987Z,8.64
2019-04-11T09:02:31.170Z,9.03
2019-04-11T09:03:31.431Z,9.22
2019-04-11T09:04:30.817Z,10.13
2019-04-11T09:05:31.313Z,9.56
2019-04-11T09:06:30.715Z,9.96
2019-04-11T09:07:31.655Z,10.07
2019-04-11T09:08:30.445Z,10.57
2019-04-11T09:09:31.490Z,10.34
2019-04-11T09:10:30.275Z,9.96
2019-04-11T09:11:30.968Z,9.44
2019-04-11T09:12:30.842Z,9.01
2019-04-11T09:13:29.980Z,8.93
2019-04-11T09:14:30.497Z,8.88
2019-04-11T09:15:29.812Z,9.30
2019-04-11T09:16:29.862Z,9.86
2019-04-11T09:17:30.292Z,9.93
2019-04-11T09:18:30.225Z,10.07
2019-04-11T09:19:30.559Z,9.98
2019-04-11T09:20:29.762Z,10.04
2019-04-11T09:21:29.240Z,9.37
2019-04-11T09:22:29.175Z,9.60
2019-04-11T09:23:30.032Z,10.11
2019-04-11T09:24:28.958Z,10.26
2019-04-11T09:25:30.233Z,10.34
2019-04-11T09:26:28.774Z,10.70
2019-04-11T09:27:28.907Z,10.57
2019-04-11T09:28:29.212Z,11.06
2019-04-11T09:29:28.497Z,10.81
2019-04-11T09:30:28.634Z,10.70
2019-04-11T09:31:29.387Z,10.84
2019-04-11T09:32:28.583Z,11.11
2019-04-11T09:33:28.866Z,10.70
2019-04-11T09:34:28.144Z,10.36
2019-04-11T09:35:27.968Z,10.83
2019-04-11T09:36:29.024Z,11.08
2019-04-11T09:37:27.766Z,11.23
2019-04-11T09:38:28.528Z,11.51
2019-04-11T09:39:28.796Z,11.26
2019-04-11T09:40:28.063Z,10.63
2019-04-11T09:41:28.222Z,9.80
2019-04-11T09:42:28.313Z,9.93
2019-04-11T09:43:28.239Z,10.13
2019-04-11T09:44:27.115Z,10.31
2019-04-11T09:45:27.751Z,10.62
2019-04-11T09:46:27.218Z,11.13
2019-04-11T09:47:26.845Z,10.70
2019-04-11T09:48:26.748Z,10.78
2019-04-11T09:49:27.068Z,10.35
2019-04-11T09:50:26.678Z,10.63
2019-04-11T09:51:29.193Z,10.39
2019-04-11T09:52:26.979Z,10.65
2019-04-11T09:53:26.288Z,10.88
2019-04-11T09:54:26.258Z,10.36
2019-04-11T09:55:26.229Z,9.99
2019-04-11T09:56:27.019Z,9.70
2019-04-11T09:57:26.817Z,10.47
2019-04-11T09:58:25.830Z,10.76
2019-04-11T09:59:27.071Z,11.17
2019-04-11T10:00:26.678Z,11.54
2019-04-11T10:01:26.679Z,11.17
2019-04-11T10:02:25.562Z,11.38
2019-04-11T10:03:25.682Z,11.12
2019-04-11T10:04:25.615Z,10.95
2019-04-11T10:05:26.420Z,10.94
2019-04-11T10:06:25.095Z,10.68
2019-04-11T10:07:25.792Z,10.54
2019-04-11T10:08:24.916Z,10.60
2019-04-11T10:09:26.014Z,10.98
2019-04-11T10:10:24.747Z,10.07
2019-04-11T10:11:24.639Z,9.56
2019-04-11T10:12:24.551Z,9.65
2019-04-11T10:13:24.936Z,9.22
2019-04-11T10:14:24.364Z,9.15
2019-04-11T10:15:24.289Z,9.88
2019-04-11T10:16:24.286Z,10.29
2019-04-11T10:17:26.326Z,10.63
2019-04-11T10:18:27.797Z,11.23
2019-04-11T10:19:24.341Z,11.35
2019-04-11T10:20:24.529Z,11.54
2019-04-11T10:21:24.684Z,11.82
2019-04-11T10:22:23.692Z,12.44
2019-04-11T10:23:24.910Z,11.90
2019-04-11T10:24:24.234Z,12.05
2019-04-11T10:25:23.458Z,12.37
2019-04-11T10:26:23.575Z,12.40
2019-04-11T10:27:23.174Z,12.34
2019-04-11T10:28:23.085Z,12.25
2019-04-11T10:29:23.628Z,12.54
2019-04-11T10:30:23.990Z,12.84
2019-04-11T10:31:22.818Z,12.52
2019-04-11T10:32:23.311Z,11.45
2019-04-11T10:33:22.662Z,10.36
2019-04-11T10:34:23.621Z,9.89
2019-04-11T10:35:22.463Z,10.35
2019-04-11T10:36:23.152Z,10.60
2019-04-11T10:37:23.354Z,10.73
2019-04-11T10:38:22.506Z,9.67
2019-04-11T10:39:22.084Z,9.80
2019-04-11T10:40:21.997Z,9.96
2019-04-11T10:41:23.001Z,10.11
2019-04-11T10:42:22.163Z,10.28
2019-04-11T10:43:22.434Z,10.54
2019-04-11T10:44:21.631Z,10.63
2019-04-11T10:45:22.587Z,10.29
2019-04-11T10:46:21.472Z,10.11
2019-04-11T10:47:21.362Z,10.32
2019-04-11T10:48:33.496Z,9.93
2019-04-11T10:49:21.983Z,9.95
2019-04-11T10:50:21.748Z,9.56
2019-04-11T10:51:21.014Z,9.52
2019-04-11T10:52:20.905Z,9.67
2019-04-11T10:53:20.813Z,9.60
2019-04-11T10:54:21.802Z,9.59
2019-04-11T10:55:21.622Z,9.52
2019-04-11T10:56:20.558Z,9.48
2019-04-11T10:57:21.382Z,9.17
2019-04-11T10:58:20.583Z,9.42
2019-04-11T10:59:20.265Z,9.74
2019-04-11T11:00:20.915Z,9.59
2019-04-11T11:01:20.101Z,8.80
2019-04-11T11:02:20.942Z,9.20
2019-04-11T11:03:20.297Z,9.71
2019-04-11T11:04:20.004Z,10.29
2019-04-11T11:05:19.717Z,10.83
2019-04-11T11:06:19.811Z,11.02
2019-04-11T11:07:20.310Z,11.77
2019-04-11T11:08:19.504Z,11.78
2019-04-11T11:09:19.879Z,12.23
2019-04-11T11:10:19.552Z,12.40
2019-04-11T11:11:20.358Z,12.40
2019-04-11T11:12:19.131Z,12.85
2019-04-11T11:13:18.984Z,12.69
2019-04-11T11:14:18.947Z,12.01
2019-04-11T11:15:19.874Z,11.98
2019-04-11T11:16:18.725Z,12.52
2019-04-11T11:17:43.814Z,12.71
2019-04-11T11:18:59.701Z,13.14
2019-04-11T11:19:40.454Z,13.13
2019-04-11T11:20:26.744Z,12.40
2019-04-11T11:21:18.271Z,11.84
2019-04-11T11:22:18.873Z,11.41
2019-04-11T11:23:18.338Z,11.23
2019-04-11T11:24:17.985Z,11.02
2019-04-11T11:25:19.353Z,11.36
2019-04-11T11:26:22.581Z,11.21
2019-04-11T11:27:18.108Z,11.57
2019-04-11T11:28:17.897Z,11.59
2019-04-11T11:29:18.892Z,11.48
2019-04-11T11:30:17.683Z,11.31
2019-04-11T11:31:18.141Z,11.45
2019-04-11T11:32:17.270Z,11.28
2019-04-11T11:33:18.188Z,11.53
2019-04-11T11:34:19.997Z,12.11
2019-04-11T11:35:17.042Z,10.63
2019-04-11T11:36:17.346Z,9.60
2019-04-11T11:37:17.557Z,9.44
2019-04-11T11:38:17.678Z,9.12
2019-04-11T11:39:17.354Z,9.06
2019-04-11T11:40:18.318Z,8.86
2019-04-11T11:41:16.475Z,9.65
2019-04-11T11:42:16.358Z,10.01
2019-04-11T11:43:16.926Z,10.73
2019-04-11T11:44:16.177Z,10.66
2019-04-11T11:45:17.275Z,10.54
2019-04-11T11:46:16.120Z,11.09
2019-04-11T11:47:15.900Z,11.57
2019-04-11T11:48:18.789Z,10.98
2019-04-11T11:49:29.606Z,10.10
2019-04-11T11:50:18.773Z,9.65
2019-04-11T11:51:15.551Z,10.11
2019-04-11T11:52:15.446Z,10.60
2019-04-11T11:53:16.348Z,10.76
2019-04-11T11:54:15.642Z,11.42
2019-04-11T11:55:15.808Z,11.79
2019-04-11T11:56:15.905Z,12.00
2019-04-11T11:57:15.040Z,12.40
2019-04-11T11:58:17.011Z,12.77
2019-04-11T11:59:15.301Z,13.03
2019-04-11T12:00:15.022Z,13.22
2019-04-11T12:01:15.611Z,12.87
2019-04-11T12:02:17.443Z,13.03
2019-04-11T12:03:14.434Z,12.36
2019-04-11T12:04:14.793Z,11.84
2019-04-11T12:05:16.317Z,11.93
2019-04-11T12:06:16.959Z,11.78
2019-04-11T12:07:14.690Z,11.60
2019-04-11T12:08:16.474Z,11.02
2019-04-11T12:09:14.083Z,10.60
2019-04-11T12:10:13.797Z,10.86
2019-04-11T12:11:13.723Z,10.78
2019-04-11T12:12:13.619Z,11.11
2019-04-11T12:13:14.711Z,11.19
2019-04-11T12:14:13.748Z,11.42
2019-04-11T12:15:15.936Z,11.49
2019-04-11T12:16:16.052Z,11.54
2019-04-11T12:17:14.268Z,11.59
2019-04-11T12:18:15.803Z,11.51
2019-04-11T12:19:15.868Z,12.12
2019-04-11T12:20:15.997Z,12.15
2019-04-11T12:21:13.498Z,12.58
2019-04-11T12:22:12.699Z,12.13
2019-04-11T12:23:12.972Z,12.11
2019-04-11T12:24:13.521Z,12.44
2019-04-11T12:25:12.515Z,12.46
2019-04-11T12:26:14.116Z,12.69
2019-04-11T12:27:13.167Z,12.61
2019-04-11T12:28:14.705Z,11.94
2019-04-11T12:29:12.293Z,11.41
2019-04-11T12:30:11.969Z,10.69
2019-04-11T12:31:11.888Z,11.13
2019-04-11T12:32:13.239Z,11.39
2019-04-11T12:33:11.696Z,11.62
2019-04-11T12:34:12.334Z,11.82
2019-04-11T12:35:11.679Z,12.40
2019-04-11T12:36:12.458Z,11.74
2019-04-11T12:37:12.413Z,11.48
2019-04-11T12:38:11.240Z,11.84
2019-04-11T12:39:11.151Z,11.84
2019-04-11T12:40:11.061Z,12.37
2019-04-11T12:41:10.971Z,12.52
2019-04-11T12:42:10.998Z,11.82
2019-04-11T12:43:10.787Z,11.24
2019-04-11T12:44:10.696Z,10.84
2019-04-11T12:45:10.605Z,11.45
2019-04-11T12:46:10.514Z,11.77
2019-04-11T12:47:10.453Z,11.63
2019-04-11T12:48:12.203Z,11.54
2019-04-11T12:49:10.368Z,10.86
2019-04-11T12:50:10.148Z,10.55
2019-04-11T12:51:10.060Z,10.54
2019-04-11T12:52:09.985Z,10.42
2019-04-11T12:53:09.877Z,10.39
2019-04-11T12:54:09.784Z,10.47
2019-04-11T12:55:09.695Z,10.10
2019-04-11T12:56:09.705Z,9.55
2019-04-11T12:57:09.530Z,9.60
2019-04-11T12:58:09.421Z,9.52
2019-04-11T12:59:09.330Z,9.59
2019-04-11T13:00:09.239Z,9.60
2019-04-11T13:01:09.146Z,9.59
2019-04-11T13:02:09.170Z,9.53
2019-04-11T13:03:08.966Z,9.73
2019-04-11T13:04:08.880Z,9.65
2019-04-11T13:05:08.782Z,9.60
2019-04-11T13:06:08.693Z,9.19
2019-04-11T13:07:08.642Z,9.08
2019-04-11T13:08:08.509Z,9.03
2019-04-11T13:09:08.415Z,9.00
2019-04-11T13:10:08.423Z,9.00
2019-04-11T13:11:08.231Z,8.86
2019-04-11T13:12:08.155Z,8.45
2019-04-11T13:13:08.045Z,8.36
2019-04-11T13:14:07.954Z,8.21
2019-04-11T13:15:07.859Z,8.10